This is the latest recevied weather packets stored in our database for station/object KD4EG. If no packets are shown the sender has not sent any weather packets the latest 10 day(s).
| Time | Temp. | Humidity | Pressure | Rain* | Wind** | Luminosity | Snow |
|---|---|---|---|---|---|---|---|
| 1777527800 | 12.22° C | 89% | 1012.1 hPa | 0 mm | - | 0 W/m² | - |
| 1777527495 | 12.78° C | 87% | 1012.4 hPa | 0 mm | - | 0 W/m² | - |
| 1777527189 | 12.78° C | 88% | 1012.4 hPa | 0 mm | - | 0 W/m² | - |
| 1777526886 | 13.33° C | 86% | 1012.4 hPa | 0 mm | - | 0 W/m² | - |
| 1777526581 | 13.89° C | 82% | 1012.7 hPa | 0 mm | - | 0 W/m² | - |
| 1777526275 | 13.89° C | 78% | 1012.6 hPa | 0 mm | - | 0 W/m² | - |
| 1777525971 | 13.89° C | 80% | 1012.7 hPa | 0 mm | - | 0 W/m² | - |
| 1777525669 | 13.89° C | 82% | 1012.9 hPa | 0 mm | - | 0 W/m² | - |
| 1777525367 | 13.89° C | 82% | 1012.8 hPa | 0 mm | - | 0 W/m² | - |
| 1777525062 | 13.33° C | 85% | 1012.6 hPa | 0 mm | - | 0 W/m² | - |
| 1777524759 | 13.89° C | 85% | 1012.7 hPa | 0 mm | - | 0 W/m² | - |
| 1777524457 | 13.89° C | 82% | 1012.7 hPa | 0 mm | - | 0 W/m² | - |
| 1777524154 | 13.89° C | 82% | 1012.8 hPa | 0 mm | - | 0 W/m² | - |
| 1777523850 | 14.44° C | 81% | 1012.7 hPa | 0 mm | - | 0 W/m² | - |
| 1777523547 | 14.44° C | 80% | 1012.5 hPa | 0 mm | - | 0 W/m² | - |
| 1777523243 | 14.44° C | 80% | 1012.2 hPa | 0 mm | - | 0 W/m² | - |
| 1777522938 | 15° C | 82% | 1012.4 hPa | 0 mm | - | 0 W/m² | - |
| 1777522636 | 15.56° C | 78% | 1012.2 hPa | 0 mm | - | 0 W/m² | - |
| 1777522332 | 15.56° C | 77% | 1012.3 hPa | 0 mm | - | 0 W/m² | - |
| 1777522029 | 15.56° C | 76% | 1012.2 hPa | 0 mm | - | 0 W/m² | - |
| 1777521726 | 15° C | 82% | 1012.2 hPa | 0 mm | - | 0 W/m² | - |
| 1777521423 | 15.56° C | 81% | 1012.4 hPa | 0 mm | - | 0 W/m² | - |
| 1777521119 | 15.56° C | 82% | 1012.5 hPa | 0 mm | - | 0 W/m² | - |
| 1777520817 | 15.56° C | 82% | 1012.1 hPa | 0 mm | - | 0 W/m² | - |
| 1777520514 | 15.56° C | 84% | 1012.3 hPa | 0 mm | - | 0 W/m² | - |
* Rain latest hour (hover to see other rain measurements)
** Current wind speed in m/s (hover to see current wind gust speed)